Aviation Digital Data Service (ADDS)

Output produced by METARs form (0239 UTC 22 July 2017)
found at http://www.aviationweather.gov/adds/metars/
 
TAF HLLB 212300Z 2200/2224 VRB02KT CAVOK 
     BECMG 2210/2212 36015KT
       
TAF HLTD 212300Z 2200/2224 VRB02KT CAVOK 
     BECMG 2215/2217 03012KT
       
TAF HLGT 212300Z 2200/2224 VRB02KT CAVOK 
     BECMG 2215/2217 03012KT
       
TAF HLKF 212300Z 2200/2224 VRB02KT CAVOK 
     BECMG 2210/2212 36012KT